This is the latest recevied weather packets stored in our database for station/object 9W2EXL-13. If no packets are shown the sender has not sent any weather packets the latest 10 day(s).
| Time | Temp. | Humidity | Pressure | Rain* | Wind** | Luminosity | Snow |
|---|---|---|---|---|---|---|---|
| 1788166282 | 36.11° C | 70% | 1008.8 hPa | - | - | - | - |
| 1788165382 | 35.56° C | 69% | 1009 hPa | - | - | - | - |
| 1788164482 | 35.56° C | 69% | 1009.1 hPa | - | - | - | - |
| 1788163582 | 35.56° C | 68% | 1009.2 hPa | - | - | - | - |
| 1788161782 | 35.56° C | 69% | 1009.6 hPa | - | - | - | - |
| 1788159981 | 35° C | 73% | 1009.8 hPa | - | - | - | - |
| 1788157281 | 34.44° C | 78% | 1010.4 hPa | - | - | - | - |
| 1788156381 | 34.44° C | 79% | 1010.6 hPa | - | - | - | - |
| 1788155484 | 34.44° C | 80% | 1010.7 hPa | - | - | - | - |
| 1788153681 | 33.89° C | 83% | 1011.1 hPa | - | - | - | - |
| 1788151881 | 33.33° C | 88% | 1011.5 hPa | - | - | - | - |
| 1788150080 | 32.22° C | 95% | 1011.9 hPa | - | - | - | - |
| 1788149180 | 32.22° C | 97% | 1012.1 hPa | - | - | - | - |
| 1788147380 | 33.33° C | 90% | 1012.3 hPa | - | - | - | - |
| 1788146480 | 32.78° C | 92% | 1012.6 hPa | - | - | - | - |
| 1788143780 | 31.67° C | 93% | 1012.9 hPa | - | - | - | - |
| 1788140179 | 30.56° C | 97% | 1012.8 hPa | - | - | - | - |
| 1788139279 | 30.56° C | 98% | 1012.8 hPa | - | - | - | - |
| 1788136579 | 29.44° C | 100% | 1012.1 hPa | - | - | - | - |
| 1788132079 | 28.89° C | 100% | 1011.8 hPa | - | - | - | - |
| 1788131179 | 28.89° C | 100% | 1011.3 hPa | - | - | - | - |
| 1788126678 | 29.44° C | 99% | 1011.1 hPa | - | - | - | - |
| 1788125778 | 29.44° C | 99% | 1011.1 hPa | - | - | - | - |
| 1788123978 | 29.44° C | 98% | 1010.6 hPa | - | - | - | - |
| 1788123078 | 29.44° C | 98% | 1010.7 hPa | - | - | - | - |
* Rain since midnight (hover to see other rain measurements)
** Current wind speed in m/s (hover to see current wind gust speed)